createdAt,value
2023-06-27T00:00:45.620Z,2.30
2023-06-27T00:06:08.829Z,2.20
2023-06-27T00:11:12.115Z,2.20
2023-06-27T00:16:15.742Z,2.20
2023-06-27T00:21:19.100Z,2.50
2023-06-27T00:26:22.378Z,2.60
2023-06-27T00:31:27.369Z,2.10
2023-06-27T00:36:30.955Z,2.50
2023-06-27T00:41:34.190Z,2.30
2023-06-27T00:46:40.611Z,2.40
2023-06-27T00:51:46.004Z,2.70
2023-06-27T00:56:55.110Z,2.30
2023-06-27T01:01:58.416Z,2.50
2023-06-27T01:07:12.194Z,2.60
2023-06-27T01:12:27.754Z,2.40
2023-06-27T01:17:34.511Z,2.40
2023-06-27T01:22:41.635Z,2.80
2023-06-27T01:27:45.217Z,2.40
2023-06-27T01:33:00.990Z,2.80
2023-06-27T01:38:15.498Z,2.50
2023-06-27T01:43:19.999Z,2.60
2023-06-27T01:48:24.924Z,2.70
2023-06-27T01:53:28.249Z,2.90
2023-06-27T01:58:31.867Z,2.70
2023-06-27T02:03:35.219Z,3.00
2023-06-27T02:08:39.207Z,2.80
2023-06-27T02:13:42.549Z,2.70
2023-06-27T02:18:45.926Z,3.10
2023-06-27T02:23:49.228Z,2.90
2023-06-27T02:28:52.647Z,2.90
2023-06-27T02:33:56.020Z,3.20
2023-06-27T02:39:02.004Z,3.20
2023-06-27T02:44:05.354Z,2.90
2023-06-27T02:49:08.721Z,3.20
2023-06-27T02:54:12.013Z,3.70
2023-06-27T02:59:15.406Z,4.40
2023-06-27T03:04:23.195Z,7.40
2023-06-27T03:09:26.859Z,8.30
2023-06-27T03:14:30.596Z,9.70
2023-06-27T03:19:43.979Z,10.30
2023-06-27T03:24:49.486Z,6.90
2023-06-27T03:29:53.118Z,4.80
2023-06-27T03:34:56.505Z,4.00
2023-06-27T03:40:01.960Z,4.20
2023-06-27T03:45:06.331Z,4.40
2023-06-27T03:50:15.885Z,4.00
2023-06-27T03:55:19.525Z,4.00
2023-06-27T04:00:22.824Z,4.20
2023-06-27T04:05:26.245Z,5.10
2023-06-27T04:10:29.704Z,7.80
2023-06-27T04:15:32.969Z,12.80
2023-06-27T04:20:36.920Z,10.90
2023-06-27T04:25:45.096Z,9.90
2023-06-27T04:30:50.376Z,8.50
2023-06-27T04:35:55.585Z,6.50
2023-06-27T04:40:58.848Z,5.80
2023-06-27T04:46:02.929Z,6.20
2023-06-27T04:51:06.336Z,6.10
2023-06-27T04:56:09.711Z,3.40
2023-06-27T05:01:13.117Z,1.80
2023-06-27T05:06:16.556Z,1.30
2023-06-27T05:11:20.306Z,1.00
2023-06-27T05:16:24.763Z,1.40
2023-06-27T05:21:31.137Z,1.20
2023-06-27T05:26:35.625Z,1.10
2023-06-27T05:31:39.059Z,1.50
2023-06-27T05:36:42.527Z,1.40
2023-06-27T05:41:46.233Z,1.60
2023-06-27T05:46:50.486Z,1.90
2023-06-27T05:51:53.877Z,1.90
2023-06-27T05:56:57.265Z,1.70
2023-06-27T06:02:00.979Z,2.40
2023-06-27T06:07:06.049Z,2.20
2023-06-27T06:12:11.721Z,2.70
2023-06-27T06:17:15.100Z,2.40
2023-06-27T06:22:18.424Z,2.70
2023-06-27T06:27:21.864Z,3.20
2023-06-27T06:32:25.340Z,3.40
2023-06-27T06:37:29.730Z,3.70
2023-06-27T06:42:33.054Z,3.40
2023-06-27T06:47:36.892Z,3.30
2023-06-27T06:52:40.280Z,3.50
2023-06-27T06:57:43.652Z,4.70
2023-06-27T07:02:47.090Z,4.30
2023-06-27T07:07:51.296Z,4.50
2023-06-27T07:12:55.002Z,3.80
2023-06-27T07:17:58.464Z,3.70
2023-06-27T07:23:01.843Z,3.60
2023-06-27T07:28:05.518Z,3.40
2023-06-27T07:33:09.104Z,3.20
2023-06-27T07:38:12.512Z,3.60
2023-06-27T07:43:15.894Z,3.30
2023-06-27T07:48:19.285Z,3.40
2023-06-27T07:53:22.659Z,3.00
2023-06-27T07:58:25.974Z,2.80
2023-06-27T08:03:29.388Z,3.10
2023-06-27T08:08:33.077Z,2.90
2023-06-27T08:13:42.970Z,2.80
2023-06-27T08:18:46.672Z,2.50
2023-06-27T08:23:49.946Z,2.80
2023-06-27T08:28:54.084Z,3.00
2023-06-27T08:33:57.354Z,2.70
2023-06-27T08:39:00.964Z,2.90
2023-06-27T08:44:04.638Z,2.30
2023-06-27T08:49:16.394Z,2.20
2023-06-27T08:54:36.142Z,2.20
2023-06-27T08:59:45.992Z,2.20
2023-06-27T09:04:50.073Z,2.20
2023-06-27T09:09:53.637Z,2.00
2023-06-27T09:14:56.964Z,1.60
2023-06-27T09:20:00.810Z,2.20
2023-06-27T09:25:15.651Z,1.80
2023-06-27T09:30:19.272Z,1.70
2023-06-27T09:35:51.854Z,1.60
2023-06-27T09:40:46.622Z,1.60
2023-06-27T09:45:58.909Z,2.00
2023-06-27T09:51:03.744Z,1.70
2023-06-27T09:56:13.625Z,1.50
2023-06-27T10:01:17.036Z,1.50
2023-06-27T10:06:20.716Z,1.40
2023-06-27T10:11:25.443Z,1.30
2023-06-27T10:16:30.638Z,1.90
2023-06-27T10:21:34.304Z,1.50
2023-06-27T10:26:38.308Z,1.60
2023-06-27T10:31:51.183Z,1.70
2023-06-27T10:37:05.461Z,1.90
2023-06-27T10:42:19.762Z,1.50
2023-06-27T10:47:29.620Z,1.20
2023-06-27T10:52:34.192Z,1.40
2023-06-27T10:57:42.004Z,1.30
2023-06-27T11:02:49.487Z,1.30
2023-06-27T11:08:00.299Z,1.00
2023-06-27T11:13:20.040Z,1.10
2023-06-27T11:18:44.582Z,1.20
2023-06-27T11:24:12.293Z,1.30
2023-06-27T11:29:16.333Z,1.20
2023-06-27T11:34:20.260Z,1.10
2023-06-27T11:39:24.687Z,1.00
2023-06-27T11:44:33.588Z,1.10
2023-06-27T11:49:42.329Z,0.80
2023-06-27T11:54:51.710Z,0.70
2023-06-27T11:59:55.097Z,1.00
2023-06-27T12:04:59.604Z,1.30
2023-06-27T12:10:08.569Z,1.10
2023-06-27T12:15:13.144Z,1.00
2023-06-27T12:20:16.557Z,1.60
2023-06-27T12:25:19.937Z,1.00
2023-06-27T12:30:23.399Z,1.50
2023-06-27T12:35:27.466Z,1.60
2023-06-27T12:40:31.008Z,1.30
2023-06-27T12:45:39.176Z,1.40
2023-06-27T12:50:45.871Z,1.50
2023-06-27T12:55:49.805Z,1.20
2023-06-27T13:00:56.212Z,1.10
2023-06-27T13:05:59.836Z,1.00
2023-06-27T13:11:03.443Z,1.40
2023-06-27T13:16:15.143Z,1.10
2023-06-27T13:21:20.363Z,2.50
2023-06-27T13:26:23.700Z,1.00
2023-06-27T13:31:27.110Z,1.00
2023-06-27T13:36:31.807Z,1.00
2023-06-27T13:41:35.247Z,0.90
2023-06-27T13:46:39.582Z,0.60
2023-06-27T13:51:43.541Z,0.80
2023-06-27T13:56:47.298Z,0.80
2023-06-27T14:01:50.612Z,0.50
2023-06-27T14:06:54.213Z,0.60
2023-06-27T14:11:58.468Z,0.80
2023-06-27T14:17:02.849Z,0.70
2023-06-27T14:22:06.769Z,0.80
2023-06-27T14:27:12.083Z,0.70
2023-06-27T14:32:15.582Z,0.60
2023-06-27T14:37:21.092Z,0.60
2023-06-27T14:42:24.564Z,0.90
2023-06-27T14:47:28.061Z,0.80
2023-06-27T14:52:33.747Z,1.30
2023-06-27T14:57:37.052Z,1.20
2023-06-27T15:02:40.517Z,1.10
2023-06-27T15:07:44.197Z,0.90
2023-06-27T15:12:47.557Z,0.90
2023-06-27T15:17:51.132Z,0.70
2023-06-27T15:22:54.501Z,1.10
2023-06-27T15:27:58.940Z,0.90
2023-06-27T15:33:03.027Z,1.10
2023-06-27T15:38:12.029Z,1.30
2023-06-27T15:43:15.587Z,1.50
2023-06-27T15:48:19.297Z,1.30
2023-06-27T15:53:22.602Z,1.20
2023-06-27T15:58:25.976Z,1.40
2023-06-27T16:03:29.449Z,1.30
2023-06-27T16:08:32.922Z,1.30
2023-06-27T16:13:36.181Z,1.30
2023-06-27T16:18:40.600Z,1.30
2023-06-27T16:23:44.120Z,1.30
2023-06-27T16:28:48.240Z,1.30
2023-06-27T16:33:51.871Z,1.40
2023-06-27T16:38:55.285Z,1.40
2023-06-27T16:43:58.678Z,1.20
2023-06-27T16:49:02.243Z,1.40
2023-06-27T16:54:05.555Z,1.30
2023-06-27T16:59:08.882Z,1.30
2023-06-27T17:04:13.329Z,1.60
2023-06-27T17:09:16.667Z,1.40
2023-06-27T17:14:21.169Z,1.70
2023-06-27T17:19:24.611Z,1.30
2023-06-27T17:24:27.987Z,1.60
2023-06-27T17:29:31.417Z,1.50
2023-06-27T17:34:34.754Z,1.70
2023-06-27T17:39:38.201Z,1.60
2023-06-27T17:44:42.583Z,1.70
2023-06-27T17:49:46.327Z,1.50
2023-06-27T17:54:49.707Z,1.80
2023-06-27T17:59:53.289Z,1.50
2023-06-27T18:04:58.904Z,1.60
2023-06-27T18:10:02.293Z,1.80
2023-06-27T18:15:10.023Z,1.60
2023-06-27T18:20:16.647Z,1.60
2023-06-27T18:25:20.777Z,1.60
2023-06-27T18:30:24.630Z,1.70
2023-06-27T18:35:32.908Z,1.70
2023-06-27T18:40:38.844Z,1.70
2023-06-27T18:45:46.480Z,1.90
2023-06-27T18:50:50.563Z,2.00
2023-06-27T18:55:54.940Z,2.00
2023-06-27T19:00:58.281Z,1.80
2023-06-27T19:06:02.312Z,1.80
2023-06-27T19:11:05.656Z,1.80
2023-06-27T19:16:10.596Z,2.00
2023-06-27T19:21:18.522Z,2.00
2023-06-27T19:26:21.992Z,1.60
2023-06-27T19:31:25.421Z,1.60
2023-06-27T19:36:28.855Z,1.60
2023-06-27T19:41:32.444Z,1.80
2023-06-27T19:46:35.815Z,1.90
2023-06-27T19:51:39.184Z,2.00
2023-06-27T19:56:42.846Z,2.10
2023-06-27T20:01:46.345Z,1.30
2023-06-27T20:06:50.054Z,1.80
2023-06-27T20:11:53.984Z,1.80
2023-06-27T20:16:57.293Z,2.20
2023-06-27T20:22:00.602Z,2.30
2023-06-27T20:27:04.909Z,2.70
2023-06-27T20:32:09.133Z,2.70
2023-06-27T20:37:12.568Z,2.90
2023-06-27T20:42:15.968Z,2.90
2023-06-27T20:47:19.353Z,2.10
2023-06-27T20:52:22.663Z,2.90
2023-06-27T20:57:26.064Z,2.80
2023-06-27T21:02:29.638Z,3.10
2023-06-27T21:07:33.337Z,2.80
2023-06-27T21:12:37.465Z,3.30
2023-06-27T21:17:40.875Z,3.20
2023-06-27T21:22:44.198Z,2.80
2023-06-27T21:27:51.925Z,3.00
2023-06-27T21:32:56.595Z,3.00
2023-06-27T21:38:00.124Z,2.80
2023-06-27T21:43:03.869Z,3.30
2023-06-27T21:48:07.304Z,3.10
2023-06-27T21:53:11.037Z,3.20
2023-06-27T21:58:14.886Z,3.30
2023-06-27T22:03:19.953Z,3.40
2023-06-27T22:08:24.911Z,3.00
2023-06-27T22:13:28.531Z,3.00
2023-06-27T22:18:31.837Z,2.90
2023-06-27T22:23:35.349Z,3.40
2023-06-27T22:28:38.733Z,3.50
2023-06-27T22:33:42.097Z,3.20
2023-06-27T22:38:45.511Z,3.30
2023-06-27T22:43:48.845Z,4.00
2023-06-27T22:48:52.222Z,4.00
2023-06-27T22:53:56.891Z,3.10
2023-06-27T22:59:03.255Z,3.30
2023-06-27T23:04:07.008Z,3.20
2023-06-27T23:09:10.381Z,3.00
2023-06-27T23:14:14.139Z,2.70
2023-06-27T23:19:17.551Z,3.00
2023-06-27T23:24:28.563Z,3.00
2023-06-27T23:29:32.108Z,3.20
2023-06-27T23:34:35.455Z,2.80
2023-06-27T23:39:38.721Z,2.40
2023-06-27T23:44:42.209Z,2.30
2023-06-27T23:49:45.527Z,2.50
2023-06-27T23:54:48.931Z,2.40
2023-06-27T23:59:52.243Z,2.70
